createdAt,value
2018-05-01T00:02:08.352Z,99392.69
2018-05-01T00:04:34.153Z,99395.52
2018-05-01T00:06:59.953Z,99389.50
2018-05-01T00:09:25.766Z,99387.38
2018-05-01T00:11:51.572Z,99391.15
2018-05-01T00:14:17.392Z,99380.53
2018-05-01T00:16:43.169Z,99375.66
2018-05-01T00:19:08.972Z,99376.06
2018-05-01T00:21:34.766Z,99373.28
2018-05-01T00:24:00.566Z,99372.33
2018-05-01T00:26:26.354Z,99369.77
2018-05-01T00:28:52.147Z,99358.89
2018-05-01T00:31:17.945Z,99365.89
2018-05-01T00:33:43.727Z,99358.65
2018-05-01T00:36:09.524Z,99361.08
2018-05-01T00:38:35.325Z,99352.05
2018-05-01T00:41:01.106Z,99355.39
2018-05-01T00:43:26.889Z,99359.98
2018-05-01T00:45:52.701Z,99349.12
2018-05-01T00:48:18.487Z,99345.27
2018-05-01T00:50:44.265Z,99345.22
2018-05-01T00:53:10.065Z,99343.61
2018-05-01T00:55:35.853Z,99345.30
2018-05-01T00:58:01.648Z,99350.47
2018-05-01T01:00:27.465Z,99341.02
2018-05-01T01:02:53.254Z,99348.91
2018-05-01T01:05:19.069Z,99349.05
2018-05-01T01:07:44.861Z,99339.27
2018-05-01T01:10:10.652Z,99344.97
2018-05-01T01:12:36.454Z,99342.41
2018-05-01T01:15:02.279Z,99344.05
2018-05-01T01:17:28.057Z,99350.64
2018-05-01T01:19:53.891Z,99353.92
2018-05-01T01:22:19.688Z,99353.56
2018-05-01T01:27:18.178Z,99357.12
2018-05-01T01:29:43.957Z,99359.63
2018-05-01T01:32:13.730Z,99363.83
2018-05-01T01:34:39.571Z,99366.57
2018-05-01T01:37:05.230Z,99373.78
2018-05-01T01:39:30.895Z,99366.98
2018-05-01T01:41:56.548Z,99373.83
2018-05-01T01:44:22.198Z,99373.54
2018-05-01T01:46:47.870Z,99384.63
2018-05-01T01:49:13.517Z,99379.96
2018-05-01T01:51:39.163Z,99385.81
2018-05-01T01:54:04.813Z,99385.27
2018-05-01T01:56:30.459Z,99390.44
2018-05-01T01:58:56.114Z,99405.78
2018-05-01T02:01:21.770Z,99394.47
2018-05-01T02:03:47.417Z,99390.27
2018-05-01T02:06:13.097Z,99382.70
2018-05-01T02:08:38.765Z,99389.97
2018-05-01T02:11:04.430Z,99390.65
2018-05-01T02:13:30.085Z,99388.44
2018-05-01T02:15:55.759Z,99383.25
2018-05-01T02:18:21.414Z,99379.76
2018-05-01T02:20:47.068Z,99391.87
2018-05-01T02:23:12.730Z,99393.08
2018-05-01T02:25:38.380Z,99389.94
2018-05-01T02:28:04.059Z,99391.92
2018-05-01T02:30:29.745Z,99387.35
2018-05-01T02:32:55.406Z,99390.66
2018-05-01T02:35:21.069Z,99386.05
2018-05-01T02:37:46.709Z,99387.91
2018-05-01T02:40:12.350Z,99391.20
2018-05-01T02:45:10.968Z,99382.99
2018-05-01T02:47:36.631Z,99388.71
2018-05-01T02:50:02.338Z,99397.49
2018-05-01T02:52:27.984Z,99388.11
2018-05-01T02:54:53.624Z,99400.55
2018-05-01T02:57:19.279Z,99399.72
2018-05-01T02:59:44.930Z,99392.44
2018-05-01T03:02:10.582Z,99396.12
2018-05-01T03:04:36.257Z,99408.86
2018-05-01T03:07:01.919Z,99397.36
2018-05-01T03:09:27.565Z,99390.08
2018-05-01T03:11:53.238Z,99398.75
2018-05-01T03:14:18.883Z,99405.77
2018-05-01T03:16:44.546Z,99396.01
2018-05-01T03:19:10.208Z,99393.45
2018-05-01T03:21:35.849Z,99405.91
2018-05-01T03:24:01.501Z,99407.19
2018-05-01T03:26:27.164Z,99414.03
2018-05-01T03:28:52.804Z,99395.98
2018-05-01T03:31:18.460Z,99399.67
2018-05-01T03:33:44.118Z,99382.03
2018-05-01T03:36:09.785Z,99394.16
2018-05-01T03:38:35.435Z,99386.64
2018-05-01T03:41:01.087Z,99374.93
2018-05-01T03:43:26.753Z,99384.11
2018-05-01T03:45:52.399Z,99385.36
2018-05-01T03:48:18.078Z,99391.01
2018-05-01T03:50:43.725Z,99388.85
2018-05-01T03:53:09.391Z,99391.70
2018-05-01T03:55:35.047Z,99405.44
2018-05-01T03:58:00.822Z,99416.79
2018-05-01T04:00:26.468Z,99406.03
2018-05-01T04:02:52.151Z,99420.68
2018-05-01T04:05:17.837Z,99413.23
2018-05-01T04:07:43.490Z,99410.84
2018-05-01T04:10:09.138Z,99420.01
2018-05-01T04:12:35.099Z,99425.87
2018-05-01T04:15:00.748Z,99437.97
2018-05-01T04:17:26.401Z,99438.65
2018-05-01T04:19:52.153Z,99444.74
2018-05-01T04:22:17.830Z,99449.98
2018-05-01T04:24:43.485Z,99449.47
2018-05-01T04:27:09.156Z,99446.30
2018-05-01T04:29:34.812Z,99451.41
2018-05-01T04:32:00.457Z,99442.16
2018-05-01T04:34:26.111Z,99442.22
2018-05-01T04:36:51.757Z,99441.30
2018-05-01T04:39:17.408Z,99443.14
2018-05-01T04:41:43.058Z,99448.08
2018-05-01T04:44:08.712Z,99441.92
2018-05-01T04:46:34.607Z,99443.84
2018-05-01T04:49:00.258Z,99451.77
2018-05-01T04:51:25.908Z,99445.06
2018-05-01T04:53:51.569Z,99454.06
2018-05-01T04:56:17.227Z,99455.58
2018-05-01T04:58:42.874Z,99453.91
2018-05-01T05:01:08.546Z,99450.82
2018-05-01T05:03:34.194Z,99455.20
2018-05-01T05:05:59.838Z,99457.79
2018-05-01T05:08:25.520Z,99457.77
2018-05-01T05:10:51.171Z,99463.51
2018-05-01T05:13:16.815Z,99468.06
2018-05-01T05:15:42.505Z,99464.25
2018-05-01T05:18:08.147Z,99460.27
2018-05-01T05:20:33.793Z,99465.41
2018-05-01T05:22:59.483Z,99472.19
2018-05-01T05:25:25.141Z,99468.80
2018-05-01T05:27:50.777Z,99465.35
2018-05-01T05:30:16.434Z,99458.91
2018-05-01T05:32:42.079Z,99467.39
2018-05-01T05:35:07.733Z,99461.28
2018-05-01T05:37:33.396Z,99453.69
2018-05-01T05:39:59.049Z,99455.00
2018-05-01T05:42:24.697Z,99463.48
2018-05-01T05:44:50.487Z,99453.84
2018-05-01T05:47:16.133Z,99457.16
2018-05-01T05:49:41.795Z,99458.41
2018-05-01T05:52:07.472Z,99463.70
2018-05-01T05:54:33.137Z,99449.61
2018-05-01T05:56:58.809Z,99459.58
2018-05-01T05:59:24.458Z,99467.44
2018-05-01T06:01:50.115Z,99462.53
2018-05-01T06:04:15.776Z,99473.77
2018-05-01T06:06:41.418Z,99459.96
2018-05-01T06:09:07.070Z,99469.98
2018-05-01T06:11:32.947Z,99460.00
2018-05-01T06:13:58.577Z,99474.55
2018-05-01T06:16:24.230Z,99467.69
2018-05-01T06:18:49.894Z,99476.49
2018-05-01T06:21:22.682Z,99475.87
2018-05-01T06:23:48.332Z,99473.56
2018-05-01T06:26:13.977Z,99478.42
2018-05-01T06:28:39.622Z,99465.53
2018-05-01T06:31:05.399Z,99466.93
2018-05-01T06:33:30.973Z,99469.95
2018-05-01T06:35:56.605Z,99472.25
2018-05-01T06:38:22.267Z,99492.55
2018-05-01T06:40:47.921Z,99479.73
2018-05-01T06:43:13.566Z,99478.23
2018-05-01T06:45:39.221Z,99474.91
2018-05-01T06:48:04.876Z,99470.02
2018-05-01T06:50:30.525Z,99488.55
2018-05-01T06:52:56.438Z,99482.03
2018-05-01T06:55:22.077Z,99480.95
2018-05-01T06:57:47.802Z,99471.62
2018-05-01T07:00:13.396Z,99475.26
2018-05-01T07:02:39.033Z,99489.56
2018-05-01T07:05:04.693Z,99470.78
2018-05-01T07:07:30.350Z,99490.17
2018-05-01T07:10:03.525Z,99492.20
2018-05-01T07:12:29.258Z,99477.27
2018-05-01T07:14:54.901Z,99467.67
2018-05-01T07:17:20.552Z,99477.19
2018-05-01T07:19:46.196Z,99480.83
2018-05-01T07:22:11.854Z,99473.88
2018-05-01T07:24:37.522Z,99468.15
2018-05-01T07:27:03.181Z,99471.33
2018-05-01T07:29:28.818Z,99482.16
2018-05-01T07:31:54.488Z,99472.64
2018-05-01T07:34:20.139Z,99479.23
2018-05-01T07:36:46.966Z,99477.91
2018-05-01T07:39:12.714Z,99472.82
2018-05-01T07:41:38.547Z,99476.05
2018-05-01T07:44:04.118Z,99483.32
2018-05-01T07:46:30.666Z,99491.55
2018-05-01T07:48:56.319Z,99475.90
2018-05-01T07:51:29.182Z,99490.69
2018-05-01T07:53:54.839Z,99476.16
2018-05-01T07:56:20.521Z,99474.95
2018-05-01T07:58:46.184Z,99488.31
2018-05-01T08:01:12.232Z,99491.30
2018-05-01T08:03:37.915Z,99493.54
2018-05-01T08:06:03.633Z,99480.54
2018-05-01T08:08:29.345Z,99493.23
2018-05-01T08:10:55.073Z,99482.85
2018-05-01T08:13:20.711Z,99507.36
2018-05-01T08:15:46.539Z,99481.93
2018-05-01T08:18:12.330Z,99528.81
2018-05-01T08:20:37.970Z,99523.47
2018-05-01T08:23:03.626Z,99523.08
2018-05-01T08:25:29.381Z,99521.10
2018-05-01T08:27:55.021Z,99512.48
2018-05-01T08:30:20.670Z,99532.56
2018-05-01T08:32:46.333Z,99544.48
2018-05-01T08:35:11.979Z,99540.47
2018-05-01T08:37:37.657Z,99548.91
2018-05-01T08:40:03.305Z,99540.36
2018-05-01T08:42:28.957Z,99568.22
2018-05-01T08:44:54.621Z,99550.80
2018-05-01T08:47:20.278Z,99558.53
2018-05-01T08:49:45.925Z,99558.24
2018-05-01T08:52:11.873Z,99574.55
2018-05-01T08:54:37.789Z,99572.20
2018-05-01T08:57:03.469Z,99561.92
2018-05-01T08:59:30.485Z,99557.95
2018-05-01T09:01:56.202Z,99573.31
2018-05-01T09:04:21.846Z,99570.86
2018-05-01T09:06:47.491Z,99578.34
2018-05-01T09:09:13.142Z,99574.45
2018-05-01T09:11:39.227Z,99583.90
2018-05-01T09:14:04.877Z,99595.75
2018-05-01T09:16:30.526Z,99598.67
2018-05-01T09:18:56.176Z,99598.05
2018-05-01T09:21:22.077Z,99606.91
2018-05-01T09:23:48.879Z,99611.19
2018-05-01T09:26:14.580Z,99605.95
2018-05-01T09:28:40.285Z,99610.52
2018-05-01T09:31:05.933Z,99608.77
2018-05-01T09:33:31.604Z,99617.84
2018-05-01T09:35:57.323Z,99624.05
2018-05-01T09:38:22.973Z,99618.40
2018-05-01T09:40:48.648Z,99627.20
2018-05-01T09:43:14.293Z,99630.91
2018-05-01T09:45:39.937Z,99645.44
2018-05-01T09:48:05.879Z,99652.81
2018-05-01T09:53:04.166Z,99638.47
2018-05-01T09:55:29.975Z,99639.16
2018-05-01T09:57:55.773Z,99642.63
2018-05-01T10:00:23.382Z,99642.63
2018-05-01T10:02:49.229Z,99642.08
2018-05-01T10:05:15.028Z,99670.64
2018-05-01T10:07:41.142Z,99640.91
2018-05-01T10:10:06.932Z,99662.29
2018-05-01T10:12:32.733Z,99647.55
2018-05-01T10:14:58.551Z,99663.95
2018-05-01T10:17:24.333Z,99676.58
2018-05-01T10:19:50.114Z,99676.65
2018-05-01T10:22:15.936Z,99679.02
2018-05-01T10:24:41.718Z,99684.51
2018-05-01T10:27:07.525Z,99687.43
2018-05-01T10:29:33.335Z,99686.22
2018-05-01T10:31:59.119Z,99690.75
2018-05-01T10:34:24.890Z,99690.16
2018-05-01T10:36:50.680Z,99701.61
2018-05-01T10:39:16.463Z,99713.28
2018-05-01T10:41:42.271Z,99698.50
2018-05-01T10:44:08.399Z,99716.82
2018-05-01T10:46:34.133Z,99715.33
2018-05-01T10:48:59.947Z,99723.98
2018-05-01T10:51:25.742Z,99709.95
2018-05-01T10:53:51.527Z,99725.53
2018-05-01T10:56:17.325Z,99733.59
2018-05-01T10:58:43.093Z,99740.81
2018-05-01T11:01:08.890Z,99737.49
2018-05-01T11:03:34.674Z,99750.95
2018-05-01T11:06:00.454Z,99786.25
2018-05-01T11:08:26.295Z,99751.20
2018-05-01T11:10:52.062Z,99765.40
2018-05-01T11:13:17.859Z,99789.77
2018-05-01T11:15:43.650Z,99777.95
2018-05-01T11:18:09.463Z,99766.37
2018-05-01T11:20:35.302Z,99772.04
2018-05-01T11:23:01.099Z,99787.71
2018-05-01T11:25:26.957Z,99783.94
2018-05-01T11:27:52.837Z,99804.50
2018-05-01T11:30:18.576Z,99801.33
2018-05-01T11:32:44.667Z,99814.31
2018-05-01T11:35:10.446Z,99815.32
2018-05-01T11:37:36.229Z,99831.17
2018-05-01T11:40:02.044Z,99814.83
2018-05-01T11:42:27.836Z,99847.11
2018-05-01T11:44:53.644Z,99827.33
2018-05-01T11:47:19.412Z,99845.00
2018-05-01T11:49:45.211Z,99851.25
2018-05-01T11:52:10.994Z,99847.08
2018-05-01T11:54:36.833Z,99868.86
2018-05-01T11:57:02.675Z,99865.30
2018-05-01T11:59:28.470Z,99874.29
2018-05-01T12:01:55.243Z,99870.33
2018-05-01T12:04:21.309Z,99874.77
2018-05-01T12:06:47.461Z,99889.05
2018-05-01T12:09:13.253Z,99899.91
2018-05-01T12:11:39.337Z,99887.55
2018-05-01T12:14:05.141Z,99901.84
2018-05-01T12:16:31.508Z,99918.09
2018-05-01T12:18:57.355Z,99916.98
2018-05-01T12:21:23.141Z,99932.78
2018-05-01T12:23:48.962Z,99934.16
2018-05-01T12:26:15.251Z,99937.55
2018-05-01T12:28:41.031Z,99949.20
2018-05-01T12:31:07.664Z,99954.66
2018-05-01T12:33:33.488Z,99948.02
2018-05-01T12:35:59.416Z,99957.92
2018-05-01T12:38:25.206Z,99961.23
2018-05-01T12:40:51.013Z,99967.55
2018-05-01T12:43:16.811Z,99967.59
2018-05-01T12:45:42.601Z,99981.42
2018-05-01T12:48:08.464Z,99976.05
2018-05-01T12:50:34.209Z,99974.61
2018-05-01T12:53:00.006Z,99974.19
2018-05-01T12:55:25.799Z,99988.65
2018-05-01T12:57:51.592Z,99992.87
2018-05-01T13:00:17.405Z,99998.83
2018-05-01T13:02:43.212Z,100002.63
2018-05-01T13:05:09.033Z,99998.56
2018-05-01T13:07:34.851Z,100008.44
2018-05-01T13:10:00.633Z,100009.29
2018-05-01T13:12:26.471Z,100012.56
2018-05-01T13:14:52.257Z,100011.41
2018-05-01T13:17:18.062Z,100025.76
2018-05-01T13:19:43.941Z,100028.97
2018-05-01T13:22:09.786Z,100026.00
2018-05-01T13:24:35.609Z,100040.13
2018-05-01T13:27:01.427Z,100036.27
2018-05-01T13:29:27.220Z,100050.25
2018-05-01T13:31:53.040Z,100045.33
2018-05-01T13:34:18.854Z,100046.38
2018-05-01T13:36:44.632Z,100066.48
2018-05-01T13:39:10.426Z,100073.40
2018-05-01T13:41:36.219Z,100065.28
2018-05-01T13:44:02.007Z,100081.72
2018-05-01T13:46:27.791Z,100084.84
2018-05-01T13:48:53.718Z,100098.94
2018-05-01T13:51:19.429Z,100090.34
2018-05-01T13:53:45.226Z,100106.20
2018-05-01T13:56:11.025Z,100098.89
2018-05-01T13:58:36.807Z,100109.32
2018-05-01T14:01:02.647Z,100108.97
2018-05-01T14:03:28.442Z,100113.45
2018-05-01T14:05:54.251Z,100117.09
2018-05-01T14:08:20.030Z,100126.42
2018-05-01T14:10:45.830Z,100128.20
2018-05-01T14:13:11.703Z,100137.80
2018-05-01T14:15:37.430Z,100138.13
2018-05-01T14:18:03.223Z,100149.10
2018-05-01T14:20:29.055Z,100148.25
2018-05-01T14:22:54.861Z,100119.44
2018-05-01T14:25:20.664Z,100148.95
2018-05-01T14:27:46.497Z,100156.00
2018-05-01T14:30:12.305Z,100162.77
2018-05-01T14:32:38.117Z,100156.86
2018-05-01T14:35:03.904Z,100158.02
2018-05-01T14:37:29.727Z,100168.36
2018-05-01T14:39:55.533Z,100184.91
2018-05-01T14:42:21.333Z,100175.72
2018-05-01T14:44:47.150Z,100189.80
2018-05-01T14:47:12.938Z,100188.70
2018-05-01T14:49:38.726Z,100194.95
2018-05-01T14:52:04.546Z,100203.77
2018-05-01T14:54:30.351Z,100209.73
2018-05-01T14:56:56.159Z,100187.95
2018-05-01T14:59:21.963Z,100208.92
2018-05-01T15:01:47.871Z,100222.86
2018-05-01T15:04:13.627Z,100232.51
2018-05-01T15:06:39.405Z,100226.48
2018-05-01T15:09:05.244Z,100231.70
2018-05-01T15:11:30.986Z,100230.02
2018-05-01T15:13:56.769Z,100223.81
2018-05-01T15:16:22.578Z,100241.31
2018-05-01T15:18:48.494Z,100246.57
2018-05-01T15:21:14.277Z,100246.45
2018-05-01T15:23:40.185Z,100254.16
2018-05-01T15:26:05.987Z,100257.52
2018-05-01T15:28:31.778Z,100256.87
2018-05-01T15:30:57.594Z,100270.47
2018-05-01T15:33:23.393Z,100264.09
2018-05-01T15:35:49.278Z,100262.92
2018-05-01T15:38:15.069Z,100265.53
2018-05-01T15:40:40.863Z,100279.57
2018-05-01T15:43:06.653Z,100269.13
2018-05-01T15:45:32.444Z,100267.56
2018-05-01T15:47:58.234Z,100273.31
2018-05-01T15:50:24.051Z,100283.61
2018-05-01T15:52:49.856Z,100282.17
2018-05-01T15:55:15.634Z,100289.10
2018-05-01T15:57:41.447Z,100291.37
2018-05-01T16:00:07.248Z,100293.53
2018-05-01T16:02:33.066Z,100298.64
2018-05-01T16:04:58.891Z,100312.16
2018-05-01T16:07:24.699Z,100313.30
2018-05-01T16:09:50.493Z,100309.07
2018-05-01T16:12:16.286Z,100317.89
2018-05-01T16:14:42.074Z,100321.66
2018-05-01T16:17:07.892Z,100327.99
2018-05-01T16:19:33.880Z,100331.13
2018-05-01T16:21:59.686Z,100331.67
2018-05-01T16:24:25.503Z,100325.22
2018-05-01T16:26:51.339Z,100343.07
2018-05-01T16:29:17.118Z,100339.88
2018-05-01T16:31:42.907Z,100347.56
2018-05-01T16:34:08.815Z,100346.36
2018-05-01T16:36:34.528Z,100350.31
2018-05-01T16:39:00.310Z,100354.70
2018-05-01T16:41:26.100Z,100350.86
2018-05-01T16:43:51.885Z,100353.80
2018-05-01T16:46:17.686Z,100351.54
2018-05-01T16:48:43.497Z,100356.34
2018-05-01T16:51:09.302Z,100362.97
2018-05-01T16:53:35.093Z,100359.32
2018-05-01T16:56:00.891Z,100371.61
2018-05-01T16:58:26.687Z,100371.66
2018-05-01T17:00:52.487Z,100369.67
2018-05-01T17:03:18.423Z,100367.91
2018-05-01T17:05:44.226Z,100373.55
2018-05-01T17:08:10.030Z,100368.93
2018-05-01T17:10:35.825Z,100369.05
2018-05-01T17:13:01.606Z,100371.00
2018-05-01T17:15:27.396Z,100384.47
2018-05-01T17:17:53.209Z,100378.95
2018-05-01T17:20:19.003Z,100388.67
2018-05-01T17:22:45.139Z,100399.01
2018-05-01T17:25:10.957Z,100393.47
2018-05-01T17:27:36.764Z,100392.39
2018-05-01T17:30:02.591Z,100394.59
2018-05-01T17:32:28.389Z,100404.85
2018-05-01T17:34:54.206Z,100403.58
2018-05-01T17:37:20.035Z,100409.40
2018-05-01T17:39:45.829Z,100409.06
2018-05-01T17:42:11.613Z,100412.52
2018-05-01T17:44:37.407Z,100422.50
2018-05-01T17:47:03.200Z,100424.87
2018-05-01T17:49:29.002Z,100423.81
2018-05-01T17:51:54.779Z,100426.96
2018-05-01T17:54:20.556Z,100432.20
2018-05-01T17:56:46.700Z,100435.89
2018-05-01T17:59:12.485Z,100433.03
2018-05-01T18:01:38.268Z,100432.88
2018-05-01T18:04:04.130Z,100439.34
2018-05-01T18:06:29.966Z,100453.85
2018-05-01T18:08:56.696Z,100448.58
2018-05-01T18:11:22.624Z,100461.69
2018-05-01T18:13:48.383Z,100469.42
2018-05-01T18:16:14.550Z,100465.41
2018-05-01T18:18:40.338Z,100470.25
2018-05-01T18:21:06.340Z,100477.92
2018-05-01T18:23:34.874Z,100476.05
2018-05-01T18:26:04.336Z,100480.02
2018-05-01T18:28:30.957Z,100483.31
2018-05-01T18:30:56.838Z,100487.49
2018-05-01T18:33:22.645Z,100491.77
2018-05-01T18:35:48.860Z,100502.37
2018-05-01T18:38:14.654Z,100503.82
2018-05-01T18:40:41.141Z,100504.03
2018-05-01T18:43:07.222Z,100514.56
2018-05-01T18:45:33.072Z,100521.42
2018-05-01T18:47:58.855Z,100533.59
2018-05-01T18:50:24.655Z,100534.33
2018-05-01T18:52:51.241Z,100534.73
2018-05-01T18:55:17.845Z,100543.81
2018-05-01T18:57:43.662Z,100545.17
2018-05-01T19:00:09.474Z,100549.91
2018-05-01T19:02:36.193Z,100556.51
2018-05-01T19:05:02.027Z,100557.42
2018-05-01T19:07:27.814Z,100561.80
2018-05-01T19:09:53.602Z,100569.27
2018-05-01T19:12:19.922Z,100571.24
2018-05-01T19:14:45.726Z,100579.71
2018-05-01T19:17:12.050Z,100587.24
2018-05-01T19:19:37.845Z,100591.53
2018-05-01T19:22:03.652Z,100596.19
2018-05-01T19:24:29.611Z,100604.27
2018-05-01T19:26:55.433Z,100599.09
2018-05-01T19:29:21.231Z,100609.66
2018-05-01T19:31:47.108Z,100607.70
2018-05-01T19:34:12.908Z,100622.16
2018-05-01T19:36:38.698Z,100622.16
2018-05-01T19:39:04.508Z,100617.88
2018-05-01T19:41:30.311Z,100619.70
2018-05-01T19:43:56.091Z,100624.60
2018-05-01T19:46:21.993Z,100621.23
2018-05-01T19:48:47.776Z,100625.84
2018-05-01T19:51:13.576Z,100631.03
2018-05-01T19:53:39.357Z,100630.00
2018-05-01T19:56:05.150Z,100630.20
2018-05-01T19:58:30.955Z,100632.48
2018-05-01T20:00:56.757Z,100628.08
2018-05-01T20:03:22.588Z,100626.05
2018-05-01T20:05:48.358Z,100624.77
2018-05-01T20:08:14.157Z,100627.37
2018-05-01T20:10:39.930Z,100619.31
2018-05-01T20:13:12.837Z,100617.58
2018-05-01T20:15:38.632Z,100617.70
2018-05-01T20:18:04.451Z,100611.71
2018-05-01T20:20:30.243Z,100607.82
2018-05-01T20:22:56.037Z,100609.23
2018-05-01T20:25:22.196Z,100612.27
2018-05-01T20:27:47.979Z,100609.55
2018-05-01T20:30:13.791Z,100606.27
2018-05-01T20:32:39.606Z,100602.42
2018-05-01T20:35:05.395Z,100597.55
2018-05-01T20:37:31.198Z,100598.56
2018-05-01T20:39:57.817Z,100594.11
2018-05-01T20:42:23.597Z,100595.36
2018-05-01T20:44:49.370Z,100594.09
2018-05-01T20:47:15.188Z,100593.84
2018-05-01T20:49:40.977Z,100601.94
2018-05-01T20:52:06.787Z,100606.05
2018-05-01T20:54:32.601Z,100614.07
2018-05-01T20:56:58.381Z,100616.44
2018-05-01T20:59:24.190Z,100614.66
2018-05-01T21:01:50.047Z,100616.05
2018-05-01T21:04:15.768Z,100628.11
2018-05-01T21:06:41.819Z,100636.58
2018-05-01T21:09:07.602Z,100640.13
2018-05-01T21:11:33.392Z,100646.44
2018-05-01T21:13:59.197Z,100654.88
2018-05-01T21:16:24.984Z,100654.44
2018-05-01T21:18:50.778Z,100657.14
2018-05-01T21:21:16.574Z,100668.55
2018-05-01T21:23:42.360Z,100676.08
2018-05-01T21:26:08.185Z,100679.00
2018-05-01T21:28:33.977Z,100688.01
2018-05-01T21:30:59.794Z,100693.22
2018-05-01T21:33:25.575Z,100687.84
2018-05-01T21:35:51.366Z,100685.78
2018-05-01T21:38:17.177Z,100687.28
2018-05-01T21:40:42.974Z,100690.20
2018-05-01T21:43:08.753Z,100691.31
2018-05-01T21:45:34.558Z,100694.79
2018-05-01T21:48:00.521Z,100696.47
2018-05-01T21:50:26.306Z,100703.40
2018-05-01T21:52:52.092Z,100705.84
2018-05-01T21:55:18.037Z,100705.25
2018-05-01T21:57:43.843Z,100718.63
2018-05-01T22:00:09.640Z,100720.94
2018-05-01T22:02:35.441Z,100720.39
2018-05-01T22:05:01.223Z,100721.13
2018-05-01T22:07:27.022Z,100724.52
2018-05-01T22:09:52.825Z,100729.13
2018-05-01T22:12:18.626Z,100731.29
2018-05-01T22:14:44.410Z,100736.27
2018-05-01T22:17:10.210Z,100733.22
2018-05-01T22:19:36.306Z,100739.34
2018-05-01T22:22:02.121Z,100747.44
2018-05-01T22:24:27.907Z,100748.80
2018-05-01T22:26:53.703Z,100752.81
2018-05-01T22:29:19.499Z,100746.63
2018-05-01T22:31:45.286Z,100754.64
2018-05-01T22:34:11.094Z,100758.66
2018-05-01T22:36:36.881Z,100758.03
2018-05-01T22:39:02.709Z,100765.63
2018-05-01T22:41:28.549Z,100760.83
2018-05-01T22:43:54.361Z,100760.28
2018-05-01T22:46:20.155Z,100763.70
2018-05-01T22:48:46.125Z,100760.03
2018-05-01T22:51:11.908Z,100764.64
2018-05-01T22:53:37.702Z,100761.85
2018-05-01T22:56:03.511Z,100774.61
2018-05-01T22:58:29.315Z,100779.25
2018-05-01T23:00:55.117Z,100782.36
2018-05-01T23:03:20.904Z,100786.05
2018-05-01T23:05:46.692Z,100786.46
2018-05-01T23:08:12.499Z,100780.17
2018-05-01T23:10:38.292Z,100788.91
2018-05-01T23:13:04.103Z,100788.09
2018-05-01T23:15:29.919Z,100785.48
2018-05-01T23:17:55.710Z,100791.95
2018-05-01T23:20:21.484Z,100790.30
2018-05-01T23:22:47.278Z,100795.75
2018-05-01T23:25:13.060Z,100790.33
2018-05-01T23:27:38.851Z,100786.59
2018-05-01T23:30:04.658Z,100793.40
2018-05-01T23:32:30.454Z,100795.20
2018-05-01T23:34:56.243Z,100797.45
2018-05-01T23:37:22.122Z,100798.06
2018-05-01T23:39:47.925Z,100808.33
2018-05-01T23:42:13.727Z,100811.03
2018-05-01T23:44:39.518Z,100808.83
2018-05-01T23:47:05.331Z,100814.37
2018-05-01T23:49:31.122Z,100815.02
2018-05-01T23:51:56.911Z,100803.69
2018-05-01T23:54:22.853Z,100792.92
2018-05-01T23:56:48.646Z,100792.77
2018-05-01T23:59:14.425Z,100786.92
